Time;durP1;ratioP1;P1;durP2;ratioP2;P2;SDS_P1;SDS_P2;PMS_P1;PMS_P2;Temp;Humidity;BMP_temperature;BMP_pressure;BME280_temperature;BME280_humidity;BME280_pressure;Samples;Min_cycle;Max_cycle;Signal;HPM_P1;HPM_P2
2021/11/25 00:00:06;;;;;;;11.27;8.38;;;7.10;1.00;;;;;;5082352;28;20217;-85
2021/11/25 00:02:35;;;;;;;10.52;8.40;;;7.10;1.00;;;;;;5077931;28;20220;-87
2021/11/25 00:05:02;;;;;;;10.23;7.57;;;7.10;1.00;;;;;;5058496;28;20308;-86
2021/11/25 00:07:30;;;;;;;9.45;7.53;;;7.10;1.00;;;;;;5080333;28;20311;-86
2021/11/25 00:10:04;;;;;;;9.80;8.00;;;7.10;1.00;;;;;;5076561;28;20228;-86
2021/11/25 00:12:32;;;;;;;8.50;7.32;;;7.10;1.00;;;;;;5076755;28;20301;-86
2021/11/25 00:15:01;;;;;;;9.65;7.40;;;7.20;1.00;;;;;;5090584;28;20224;-86
2021/11/25 00:17:28;;;;;;;10.32;8.10;;;7.20;1.00;;;;;;5093594;27;21193;-87
2021/11/25 00:20:11;;;;;;;10.80;7.90;;;7.20;1.00;;;;;;5074908;28;20838;-86
2021/11/25 00:22:44;;;;;;;12.02;7.45;;;7.20;1.00;;;;;;5060316;28;20224;-86
2021/11/25 00:25:16;;;;;;;8.95;6.55;;;7.10;1.00;;;;;;5062650;28;20266;-86
2021/11/25 00:27:50;;;;;;;8.65;6.70;;;7.10;1.00;;;;;;5087370;28;20243;-85
2021/11/25 00:30:23;;;;;;;8.43;6.15;;;7.00;1.00;;;;;;5099679;28;20215;-86
2021/11/25 00:32:50;;;;;;;8.68;7.13;;;7.10;1.00;;;;;;5097869;28;21083;-87
2021/11/25 00:35:35;;;;;;;7.28;6.50;;;7.10;1.00;;;;;;5092852;28;20224;-87
2021/11/25 00:38:05;;;;;;;8.35;6.50;;;7.10;1.00;;;;;;5082027;28;20284;-87
2021/11/25 00:40:52;;;;;;;;;;;;;;;;;;;;;
2021/11/25 00:43:22;;;;;;;7.70;6.00;;;7.10;1.00;;;;;;5080071;28;20224;-86
2021/11/25 00:46:02;;;;;;;8.18;6.95;;;7.10;1.00;;;;;;5098870;28;20458;-86
2021/11/25 00:48:37;;;;;;;8.45;6.57;;;7.10;1.00;;;;;;5092211;28;20241;-86
2021/11/25 00:51:07;;;;;;;6.93;6.22;;;7.20;1.00;;;;;;5081029;28;20232;-86
2021/11/25 00:53:38;;;;;;;7.63;5.43;;;7.20;1.00;;;;;;5091530;28;20247;-85
2021/11/25 00:56:06;;;;;;;5.90;5.30;;;7.20;1.00;;;;;;5073190;28;20224;-86
2021/11/25 00:58:34;;;;;;;6.40;4.95;;;7.20;1.00;;;;;;5084658;28;21236;-86
2021/11/25 01:01:01;;;;;;;5.65;5.15;;;7.10;1.00;;;;;;5095684;27;20200;-85
2021/11/25 01:03:28;;;;;;;6.63;5.00;;;7.10;1.00;;;;;;5076097;28;20273;-86
2021/11/25 01:05:56;;;;;;;4.95;4.47;;;7.10;1.00;;;;;;5075189;28;20296;-86
2021/11/25 01:08:23;;;;;;;5.57;5.00;;;7.20;1.00;;;;;;5059384;28;20224;-86
2021/11/25 01:10:50;;;;;;;5.45;4.68;;;7.20;1.00;;;;;;5074769;28;20251;-86
2021/11/25 01:13:19;;;;;;;5.40;4.90;;;7.20;1.00;;;;;;5075840;28;20224;-86
2021/11/25 01:15:46;;;;;;;5.90;5.18;;;7.20;1.00;;;;;;5079945;28;20216;-86
2021/11/25 01:18:16;;;;;;;5.93;4.70;;;7.20;1.00;;;;;;5066058;28;21218;-86
2021/11/25 01:20:45;;;;;;;5.40;4.20;;;7.20;1.00;;;;;;5078930;28;20224;-86
2021/11/25 01:23:16;;;;;;;5.85;4.93;;;7.20;1.00;;;;;;5080992;28;20402;-86
2021/11/25 01:25:50;;;;;;;7.03;5.45;;;7.20;1.00;;;;;;5058281;28;20243;-86
2021/11/25 01:28:18;;;;;;;5.38;4.88;;;7.20;1.00;;;;;;5075231;28;20228;-85
2021/11/25 01:30:50;;;;;;;7.22;5.55;;;7.20;1.00;;;;;;5077663;28;20231;-85
2021/11/25 01:33:21;;;;;;;7.80;6.00;;;7.10;1.00;;;;;;5063693;28;20328;-86
2021/11/25 01:35:52;;;;;;;6.88;6.18;;;7.10;1.00;;;;;;5064243;28;20231;-86
2021/11/25 01:38:34;;;;;;;7.75;7.05;;;7.10;1.00;;;;;;5060895;28;20239;-86
2021/11/25 01:41:06;;;;;;;8.75;7.50;;;7.10;1.00;;;;;;5080663;28;20225;-86
2021/11/25 01:43:38;;;;;;;6.55;5.88;;;7.00;1.00;;;;;;5080508;28;20331;-86
2021/11/25 01:46:12;;;;;;;6.32;5.65;;;7.10;1.00;;;;;;5074351;28;20220;-86
2021/11/25 01:48:39;;;;;;;7.15;6.30;;;7.10;1.00;;;;;;5077036;28;20299;-85
2021/11/25 01:51:07;;;;;;;6.72;5.45;;;7.10;1.00;;;;;;5077702;28;20240;-86
2021/11/25 01:53:34;;;;;;;6.72;6.03;;;7.10;1.00;;;;;;5078594;28;20223;-86
2021/11/25 01:56:15;;;;;;;7.90;6.70;;;7.20;1.00;;;;;;5080382;28;20329;-87
2021/11/25 01:58:44;;;;;;;6.00;5.20;;;7.10;1.00;;;;;;5066484;28;20239;-85
2021/11/25 02:01:20;;;;;;;5.70;5.10;;;7.00;1.00;;;;;;5065698;28;20244;-87
2021/11/25 02:03:51;;;;;;;5.72;5.15;;;7.00;1.00;;;;;;5082506;28;20990;-86
2021/11/25 02:06:19;;;;;;;7.60;6.50;;;7.00;1.00;;;;;;5085019;28;20538;-86
2021/11/25 02:08:54;;;;;;;8.23;7.18;;;6.90;1.00;;;;;;5079047;28;20225;-87
2021/11/25 02:11:24;;;;;;;8.85;7.80;;;6.90;1.00;;;;;;5068658;28;20226;-86
2021/11/25 02:13:56;;;;;;;9.75;8.77;;;6.90;1.00;;;;;;5091252;28;20208;-84
2021/11/25 02:16:32;;;;;;;10.63;9.20;;;6.80;1.00;;;;;;5096945;28;20234;-85
2021/11/25 02:19:00;;;;;;;9.85;8.85;;;6.90;1.00;;;;;;5093570;28;20793;-84
2021/11/25 02:21:30;;;;;;;10.90;9.90;;;6.80;1.00;;;;;;5070815;28;20294;-85
2021/11/25 02:23:57;;;;;;;11.35;9.48;;;6.70;1.00;;;;;;5080664;28;20920;-85
2021/11/25 02:26:29;;;;;;;11.10;9.38;;;6.70;1.00;;;;;;5092658;28;20289;-85
2021/11/25 02:28:58;;;;;;;11.13;9.93;;;6.60;1.00;;;;;;5075227;28;20754;-85
2021/11/25 02:31:32;;;;;;;10.35;9.32;;;6.50;1.00;;;;;;5073583;28;20228;-85
2021/11/25 02:33:59;;;;;;;13.63;10.27;;;6.60;1.00;;;;;;5070234;28;20238;-85
2021/11/25 02:36:34;;;;;;;10.82;9.73;;;6.50;1.00;;;;;;5078103;28;20712;-85
2021/11/25 02:39:01;;;;;;;11.52;10.32;;;6.50;1.00;;;;;;5069986;28;20224;-85
2021/11/25 02:41:28;;;;;;;11.93;10.82;;;6.40;1.00;;;;;;5080962;28;20307;-85
2021/11/25 02:43:57;;;;;;;12.82;11.18;;;6.50;1.00;;;;;;5077843;28;20228;-86
2021/11/25 02:46:24;;;;;;;11.75;10.60;;;6.50;1.00;;;;;;5055828;28;20234;-86
2021/11/25 02:48:53;;;;;;;11.82;10.63;;;6.50;1.00;;;;;;5075078;28;20259;-85
2021/11/25 02:51:24;;;;;;;12.88;11.68;;;6.50;1.00;;;;;;5076498;28;21538;-86
2021/11/25 02:53:53;;;;;;;13.52;12.13;;;6.60;1.00;;;;;;5055531;28;20340;-86
2021/11/25 02:56:22;;;;;;;16.08;13.02;;;6.50;1.00;;;;;;5073190;28;20321;-85
2021/11/25 02:58:51;;;;;;;13.88;12.48;;;6.50;1.00;;;;;;5079201;28;21145;-86
2021/11/25 03:01:23;;;;;;;14.23;12.73;;;6.50;1.00;;;;;;5075354;28;20383;-86
2021/11/25 03:03:51;;;;;;;15.10;13.65;;;6.50;1.00;;;;;;5071388;28;20236;-86
2021/11/25 03:06:19;;;;;;;15.80;14.25;;;6.50;1.00;;;;;;5075051;28;20304;-86
2021/11/25 03:08:47;;;;;;;16.63;14.93;;;6.40;1.00;;;;;;5074796;28;20633;-86
2021/11/25 03:11:20;;;;;;;16.50;14.77;;;6.40;1.00;;;;;;5075349;28;21007;-86
2021/11/25 03:13:50;;;;;;;17.10;14.50;;;6.40;1.00;;;;;;5074785;28;20225;-86
2021/11/25 03:16:19;;;;;;;16.10;14.40;;;6.30;1.00;;;;;;5055196;28;20233;-86
2021/11/25 03:18:47;;;;;;;18.33;15.75;;;6.30;1.00;;;;;;5069807;28;20236;-86
2021/11/25 03:21:34;;;;;;;17.67;15.80;;;6.30;1.00;;;;;;5056135;28;20232;-86
2021/11/25 03:24:01;;;;;;;18.35;16.33;;;6.30;1.00;;;;;;5054044;28;20702;-86
2021/11/25 03:26:30;;;;;;;19.13;16.15;;;6.20;1.00;;;;;;5070192;28;20286;-86
2021/11/25 03:29:11;;;;;;;17.60;15.90;;;6.20;1.00;;;;;;5062251;28;20355;-86
2021/11/25 03:31:38;;;;;;;17.20;15.55;;;6.30;1.00;;;;;;5071345;28;21439;-86
2021/11/25 03:34:08;;;;;;;17.65;15.73;;;6.30;1.00;;;;;;5076181;28;20244;-86
2021/11/25 03:36:35;;;;;;;16.80;15.10;;;6.30;1.00;;;;;;5053093;28;20271;-87
2021/11/25 03:39:03;;;;;;;17.38;15.57;;;6.30;1.00;;;;;;5062655;28;20330;-87
2021/11/25 03:41:34;;;;;;;16.75;15.05;;;6.30;1.00;;;;;;5072549;28;20889;-87
2021/11/25 03:44:07;;;;;;;16.98;15.18;;;6.30;1.00;;;;;;5079636;27;20932;-86
2021/11/25 03:46:38;;;;;;;15.48;13.98;;;6.30;1.00;;;;;;5075920;28;20254;-86
2021/11/25 03:49:11;;;;;;;16.25;14.55;;;6.30;1.00;;;;;;5078854;28;20227;-86
2021/11/25 03:51:47;;;;;;;16.73;14.93;;;6.30;1.00;;;;;;5076928;28;20264;-86
2021/11/25 03:54:15;;;;;;;17.42;15.77;;;6.30;1.00;;;;;;5083292;28;20290;-86
2021/11/25 03:56:47;;;;;;;16.48;14.55;;;6.40;1.00;;;;;;5060421;28;20224;-85
2021/11/25 03:59:21;;;;;;;17.60;15.82;;;6.40;1.00;;;;;;5084078;28;20231;-87
2021/11/25 04:01:53;;;;;;;16.63;15.02;;;6.30;1.00;;;;;;5065121;28;20216;-87
2021/11/25 04:04:43;;;;;;;19.70;16.67;;;6.20;1.00;;;;;;5079868;28;20232;-87
2021/11/25 04:07:10;;;;;;;18.42;15.77;;;6.20;1.00;;;;;;5082376;28;20230;-87
2021/11/25 04:09:43;;;;;;;20.98;17.38;;;6.20;1.00;;;;;;5071341;28;20250;-86
2021/11/25 04:12:12;;;;;;;18.83;16.60;;;6.20;1.00;;;;;;5070254;28;20281;-87
2021/11/25 04:14:40;;;;;;;20.70;17.38;;;6.20;1.00;;;;;;5094288;27;20228;-86
2021/11/25 04:17:08;;;;;;;19.77;17.60;;;6.10;1.00;;;;;;5074813;28;20228;-86
2021/11/25 04:19:38;;;;;;;21.42;17.25;;;6.10;1.00;;;;;;5094199;28;20234;-87
2021/11/25 04:22:05;;;;;;;20.23;17.92;;;6.00;1.00;;;;;;5090518;28;20228;-86
2021/11/25 04:24:32;;;;;;;21.52;19.10;;;6.00;1.00;;;;;;5077136;28;20238;-86
2021/11/25 04:26:59;;;;;;;20.08;17.85;;;6.00;1.00;;;;;;5083436;28;20230;-86
2021/11/25 04:29:28;;;;;;;22.98;19.25;;;6.00;1.00;;;;;;5093083;28;20555;-86
2021/11/25 04:37:32;;;;;;;22.65;19.67;;;6.00;1.00;;;;;;5051274;28;20229;-86
2021/11/25 04:39:59;;;;;;;22.13;19.48;;;6.00;1.00;;;;;;5083512;28;20240;-86
2021/11/25 04:42:26;;;;;;;24.85;19.55;;;6.00;1.00;;;;;;5082186;28;20726;-87
2021/11/25 04:44:56;;;;;;;22.52;20.05;;;5.90;1.00;;;;;;5083778;28;20224;-87
2021/11/25 04:47:24;;;;;;;23.50;19.95;;;5.90;1.00;;;;;;5060637;28;20262;-87
2021/11/25 04:49:56;;;;;;;24.65;20.02;;;5.90;1.00;;;;;;5083803;28;20224;-87
2021/11/25 04:52:25;;;;;;;22.17;19.05;;;5.90;1.00;;;;;;5079524;28;20773;-87
2021/11/25 04:54:52;;;;;;;26.27;21.35;;;5.90;1.00;;;;;;5066715;28;20238;-85
2021/11/25 04:57:19;;;;;;;24.00;20.10;;;5.90;1.00;;;;;;5056594;28;20233;-85
2021/11/25 04:59:48;;;;;;;28.17;22.23;;;5.90;1.00;;;;;;5072106;28;20282;-86
2021/11/25 05:02:18;;;;;;;28.20;23.30;;;5.80;1.00;;;;;;5062503;28;20224;-86
2021/11/25 05:04:45;;;;;;;26.35;22.58;;;5.80;1.00;;;;;;5085197;28;20231;-86
2021/11/25 05:07:12;;;;;;;25.42;21.27;;;5.80;1.00;;;;;;5070464;28;20242;-85
2021/11/25 05:09:40;;;;;;;28.25;22.50;;;5.80;1.00;;;;;;5090718;28;20230;-85
2021/11/25 05:14:51;;;;;;;30.83;23.30;;;5.80;1.00;;;;;;5081310;28;20228;-86
2021/11/25 05:17:20;;;;;;;27.67;23.17;;;5.80;1.00;;;;;;5084114;28;20224;-86
2021/11/25 05:19:50;;;;;;;26.95;23.38;;;5.90;1.00;;;;;;5069969;28;20216;-85
2021/11/25 05:22:22;;;;;;;25.52;22.75;;;5.90;1.00;;;;;;5072246;28;20216;-86
2021/11/25 05:28:20;;;;;;;26.23;21.98;;;5.90;1.00;;;;;;5080083;28;20938;-79
2021/11/25 05:30:47;;;;;;;25.45;21.83;;;5.90;1.00;;;;;;5075878;28;20341;-79
2021/11/25 05:33:16;;;;;;;27.77;23.27;;;5.90;1.00;;;;;;5081544;28;20208;-79
2021/11/25 05:35:44;;;;;;;26.83;24.02;;;5.80;1.00;;;;;;5078233;28;20216;-80
2021/11/25 05:38:14;;;;;;;27.20;22.90;;;5.80;1.00;;;;;;5077917;28;20230;-78
2021/11/25 05:40:41;;;;;;;27.20;22.48;;;5.80;1.00;;;;;;5077311;28;20313;-78
2021/11/25 05:43:08;;;;;;;28.73;22.70;;;5.70;1.00;;;;;;5088362;28;20220;-77
2021/11/25 05:45:35;;;;;;;25.52;22.75;;;5.70;1.00;;;;;;5081362;28;20227;-78
2021/11/25 05:48:02;;;;;;;29.70;24.60;;;5.70;1.00;;;;;;5079755;28;20600;-78
2021/11/25 05:50:30;;;;;;;26.40;23.55;;;5.70;1.00;;;;;;5068018;28;20285;-78
2021/11/25 05:53:01;;;;;;;29.90;24.13;;;5.70;1.00;;;;;;5075224;27;20219;-80
2021/11/25 05:55:30;;;;;;;28.10;23.77;;;5.60;1.00;;;;;;5075591;28;20524;-77
2021/11/25 05:57:57;;;;;;;27.85;23.70;;;5.60;1.00;;;;;;5080486;28;20228;-81
2021/11/25 06:00:25;;;;;;;28.80;24.42;;;5.50;1.00;;;;;;5076259;28;20249;-79
2021/11/25 06:02:52;;;;;;;28.02;24.42;;;5.60;1.00;;;;;;5075843;28;20927;-78
2021/11/25 06:05:22;;;;;;;25.48;22.70;;;5.60;1.00;;;;;;5073704;28;20726;-77
2021/11/25 06:07:51;;;;;;;27.55;24.58;;;5.60;1.00;;;;;;5073415;28;20216;-77
2021/11/25 06:10:21;;;;;;;30.65;25.10;;;5.60;1.00;;;;;;5073495;28;20212;-77
2021/11/25 06:12:48;;;;;;;28.70;25.42;;;5.70;1.00;;;;;;5079598;28;20230;-77
2021/11/25 06:15:15;;;;;;;27.88;22.75;;;5.70;1.00;;;;;;5073653;28;20227;-78
2021/11/25 06:17:43;;;;;;;29.23;23.25;;;5.80;1.00;;;;;;5071837;28;20231;-78
2021/11/25 06:20:12;;;;;;;31.77;24.95;;;5.80;1.00;;;;;;5076424;28;20240;-77
2021/11/25 06:22:40;;;;;;;26.05;22.63;;;5.90;1.00;;;;;;5074981;28;20221;-78
2021/11/25 06:25:11;;;;;;;24.35;20.67;;;5.90;1.00;;;;;;5072304;28;20231;-79
2021/11/25 06:27:38;;;;;;;27.58;23.23;;;5.90;1.00;;;;;;5076039;28;20224;-78
2021/11/25 06:30:09;;;;;;;28.25;23.00;;;5.90;1.00;;;;;;5077183;28;20231;-77
2021/11/25 06:32:36;;;;;;;26.98;24.00;;;5.90;1.00;;;;;;5077266;28;20220;-77
2021/11/25 06:35:09;;;;;;;30.10;23.90;;;5.90;1.00;;;;;;5078951;28;20496;-81
2021/11/25 06:37:36;;;;;;;33.40;24.65;;;5.90;1.00;;;;;;5058362;28;21687;-79
2021/11/25 06:40:04;;;;;;;32.13;24.42;;;5.90;1.00;;;;;;5072990;28;20257;-77
2021/11/25 06:42:32;;;;;;;28.55;23.33;;;5.90;1.00;;;;;;5067489;28;20220;-79
2021/11/25 06:45:05;;;;;;;28.75;23.70;;;5.90;1.00;;;;;;5063252;28;20224;-78
2021/11/25 06:47:32;;;;;;;28.60;24.10;;;5.80;1.00;;;;;;5071831;28;20239;-77
2021/11/25 06:50:00;;;;;;;27.20;22.73;;;5.80;1.00;;;;;;5061612;28;20242;-76
2021/11/25 06:52:27;;;;;;;25.33;22.60;;;5.80;1.00;;;;;;5075249;28;20236;-79
2021/11/25 06:54:54;;;;;;;28.83;22.50;;;5.80;1.00;;;;;;5069461;28;20232;-79
2021/11/25 06:57:22;;;;;;;30.33;23.92;;;5.70;1.00;;;;;;5071365;28;20344;-79
2021/11/25 06:59:50;;;;;;;28.00;24.55;;;5.70;1.00;;;;;;5071237;28;20224;-80
2021/11/25 07:02:17;;;;;;;28.50;22.88;;;5.60;1.00;;;;;;5072836;28;20304;-79
2021/11/25 07:04:44;;;;;;;28.92;23.77;;;5.60;1.00;;;;;;5065702;28;20224;-80
2021/11/25 07:07:11;;;;;;;27.30;23.27;;;5.60;1.00;;;;;;5070156;28;20227;-78
2021/11/25 07:09:38;;;;;;;29.10;24.45;;;5.70;1.00;;;;;;5069805;28;20292;-76
2021/11/25 07:12:06;;;;;;;29.65;24.80;;;5.60;1.00;;;;;;5070253;28;20227;-80
2021/11/25 07:14:33;;;;;;;30.35;23.33;;;5.60;1.00;;;;;;5067730;27;20220;-77
2021/11/25 07:17:02;;;;;;;27.23;24.30;;;5.60;1.00;;;;;;5065994;28;20216;-78
2021/11/25 07:19:29;;;;;;;32.70;25.98;;;5.60;1.00;;;;;;5068089;28;20301;-79
2021/11/25 07:21:56;;;;;;;34.65;25.52;;;5.60;1.00;;;;;;5051040;28;20252;-78
2021/11/25 07:24:24;;;;;;;33.35;24.75;;;5.70;1.00;;;;;;5065986;28;20517;-78
2021/11/25 07:26:51;;;;;;;27.63;22.67;;;5.70;1.00;;;;;;5068267;28;20228;-78
2021/11/25 07:29:18;;;;;;;29.02;23.10;;;5.60;1.00;;;;;;5071767;28;20238;-78
2021/11/25 07:31:46;;;;;;;30.52;24.48;;;5.60;1.00;;;;;;5067589;28;20350;-78
2021/11/25 07:34:17;;;;;;;31.52;25.50;;;5.70;1.00;;;;;;5070258;28;22671;-78
2021/11/25 07:36:44;;;;;;;28.85;23.83;;;5.70;1.00;;;;;;5066836;28;20231;-78
2021/11/25 07:39:11;;;;;;;26.52;22.63;;;5.60;1.00;;;;;;5069212;28;20308;-77
2021/11/25 07:41:38;;;;;;;27.92;23.80;;;5.60;1.00;;;;;;5069084;28;20719;-79
2021/11/25 07:44:05;;;;;;;34.20;25.25;;;5.60;1.00;;;;;;5072183;28;21223;-79
2021/11/25 07:46:33;;;;;;;29.50;23.42;;;5.50;1.00;;;;;;5066487;28;20231;-78
2021/11/25 07:49:01;;;;;;;30.48;23.98;;;5.60;1.00;;;;;;5066904;28;20224;-78
2021/11/25 07:51:33;;;;;;;35.13;25.58;;;5.70;1.00;;;;;;5065540;28;20210;-79
2021/11/25 07:54:02;;;;;;;33.13;26.17;;;5.80;1.00;;;;;;5067298;28;20262;-78
2021/11/25 07:56:29;;;;;;;29.70;23.25;;;5.80;1.00;;;;;;5067225;28;20212;-78
2021/11/25 07:58:56;;;;;;;33.00;24.65;;;5.90;1.00;;;;;;5066924;28;21171;-79
2021/11/25 08:01:23;;;;;;;34.55;25.63;;;5.90;1.00;;;;;;5068949;28;20258;-79
2021/11/25 08:03:50;;;;;;;28.42;23.98;;;5.90;1.00;;;;;;5069858;28;20303;-77
2021/11/25 08:06:17;;;;;;;32.38;23.17;;;5.90;1.00;;;;;;5069435;28;20496;-78
2021/11/25 08:08:48;;;;;;;29.00;24.63;;;6.00;1.00;;;;;;5068762;28;20231;-78
2021/11/25 08:11:16;;;;;;;32.15;25.83;;;6.00;1.00;;;;;;5068631;28;20318;-76
2021/11/25 08:13:43;;;;;;;29.98;24.15;;;6.00;1.00;;;;;;5070736;28;20217;-76
2021/11/25 08:16:15;;;;;;;31.27;24.42;;;6.10;1.00;;;;;;5071475;28;20359;-77
2021/11/25 08:18:42;;;;;;;32.72;25.00;;;6.10;1.00;;;;;;5073256;28;21840;-78
2021/11/25 08:21:09;;;;;;;28.23;23.35;;;6.10;1.00;;;;;;5065948;28;20228;-77
2021/11/25 08:23:36;;;;;;;33.58;24.95;;;6.00;1.00;;;;;;5072342;28;21122;-77
2021/11/25 08:26:06;;;;;;;37.28;25.35;;;6.00;1.00;;;;;;5061959;28;20216;-78
2021/11/25 08:28:34;;;;;;;27.88;22.67;;;6.00;1.00;;;;;;5067203;28;20224;-75
2021/11/25 08:31:01;;;;;;;34.92;24.80;;;6.00;1.00;;;;;;5066463;28;20319;-78
2021/11/25 08:33:28;;;;;;;26.30;23.10;;;5.90;1.00;;;;;;5071596;28;20224;-77
2021/11/25 08:35:56;;;;;;;30.00;23.98;;;5.80;1.00;;;;;;5066373;28;20248;-78
2021/11/25 08:38:23;;;;;;;29.30;25.13;;;5.90;1.00;;;;;;5069059;28;20328;-77
2021/11/25 08:40:50;;;;;;;32.70;24.98;;;5.90;1.00;;;;;;5071385;28;20229;-77
2021/11/25 08:43:18;;;;;;;30.27;25.63;;;5.90;1.00;;;;;;5064402;28;20231;-77
2021/11/25 08:45:45;;;;;;;28.95;23.60;;;6.00;1.00;;;;;;5069261;28;20960;-77
2021/11/25 08:48:12;;;;;;;29.60;23.88;;;6.00;1.00;;;;;;5047448;28;21082;-80
2021/11/25 08:50:41;;;;;;;28.50;25.40;;;6.00;1.00;;;;;;5065632;28;20228;-78
2021/11/25 08:53:08;;;;;;;35.05;26.58;;;6.00;1.00;;;;;;5063376;28;20228;-77
2021/11/25 08:55:35;;;;;;;32.58;24.58;;;6.10;1.00;;;;;;5066586;28;20219;-76
2021/11/25 08:58:02;;;;;;;31.48;23.50;;;6.10;1.00;;;;;;5064897;28;20842;-78
2021/11/25 09:00:33;;;;;;;27.55;23.60;;;6.00;1.00;;;;;;5066920;28;20240;-76
2021/11/25 09:03:01;;;;;;;27.65;21.88;;;5.80;1.00;;;;;;5066364;28;20225;-78
2021/11/25 09:05:30;;;;;;;30.50;25.38;;;5.70;1.00;;;;;;5068770;28;20291;-78
2021/11/25 09:07:57;;;;;;;30.25;25.02;;;5.80;1.00;;;;;;5061963;28;20658;-77
2021/11/25 09:10:24;;;;;;;33.22;25.58;;;5.80;1.00;;;;;;5063601;28;20212;-77
2021/11/25 09:12:51;;;;;;;33.75;27.33;;;5.80;1.00;;;;;;5062353;28;20251;-77
2021/11/25 09:15:18;;;;;;;33.08;25.63;;;5.90;1.00;;;;;;5063730;28;20949;-79
2021/11/25 09:17:47;;;;;;;31.85;25.13;;;6.00;1.00;;;;;;5071173;28;20224;-78
2021/11/25 09:20:14;;;;;;;27.25;23.20;;;6.10;1.00;;;;;;5063869;28;20228;-77
2021/11/25 09:22:41;;;;;;;30.42;22.88;;;6.20;1.00;;;;;;5064716;28;20302;-78
2021/11/25 09:25:09;;;;;;;28.25;23.88;;;6.20;1.00;;;;;;5062871;28;20231;-78
2021/11/25 09:27:36;;;;;;;28.48;22.08;;;6.20;1.00;;;;;;5065341;28;20216;-78
2021/11/25 09:30:04;;;;;;;23.67;21.08;;;6.30;1.00;;;;;;5065947;28;20266;-79
2021/11/25 09:32:31;;;;;;;27.17;20.48;;;6.30;1.00;;;;;;5063569;28;21115;-77
2021/11/25 09:35:00;;;;;;;22.00;19.25;;;6.30;1.00;;;;;;5057700;28;20232;-78
2021/11/25 09:37:29;;;;;;;25.10;21.52;;;6.20;1.00;;;;;;5069801;28;20245;-79
2021/11/25 09:39:56;;;;;;;27.52;23.33;;;6.30;1.00;;;;;;5069262;28;20228;-78
2021/11/25 09:42:23;;;;;;;29.52;22.77;;;6.30;1.00;;;;;;5064021;28;20243;-77
2021/11/25 09:44:52;;;;;;;23.48;20.95;;;6.30;1.00;;;;;;5072297;27;20229;-78
2021/11/25 09:47:19;;;;;;;27.05;22.52;;;6.40;1.00;;;;;;5069341;28;20220;-76
2021/11/25 09:49:51;;;;;;;26.55;22.55;;;6.40;1.00;;;;;;5075464;28;20616;-78
2021/11/25 09:52:19;;;;;;;26.42;21.35;;;6.40;1.00;;;;;;5072333;28;20319;-78
2021/11/25 09:54:47;;;;;;;25.10;21.30;;;6.40;1.00;;;;;;5070983;28;20232;-78
2021/11/25 09:57:15;;;;;;;25.23;20.13;;;6.30;1.00;;;;;;5073586;28;20281;-76
2021/11/25 09:59:42;;;;;;;27.98;21.50;;;6.40;1.00;;;;;;5071528;28;20210;-78
2021/11/25 10:02:10;;;;;;;28.08;20.30;;;6.40;1.00;;;;;;5075507;28;20228;-78
2021/11/25 10:04:37;;;;;;;21.80;18.95;;;6.40;1.00;;;;;;5074771;28;20263;-78
2021/11/25 10:07:04;;;;;;;26.95;21.20;;;6.40;1.00;;;;;;5069387;28;20695;-77
2021/11/25 10:09:38;;;;;;;29.25;19.15;;;6.40;1.00;;;;;;5068678;28;20228;-77
2021/11/25 10:12:26;;;;;;;27.00;22.67;;;6.40;1.00;;;;;;5068466;28;20228;-76
2021/11/25 10:14:53;;;;;;;31.65;25.13;;;6.50;1.00;;;;;;5071112;28;20227;-77
2021/11/25 10:17:44;;;;;;;34.25;25.02;;;6.50;1.00;;;;;;5065968;28;20323;-78
2021/11/25 10:20:15;;;;;;;29.23;21.20;;;6.50;1.00;;;;;;5064746;28;20208;-77
2021/11/25 10:23:15;;;;;;;25.30;20.58;;;6.50;1.00;;;;;;5068831;28;20224;-77
2021/11/25 10:25:49;;;;;;;28.02;22.20;;;6.50;1.00;;;;;;5067554;28;20216;-77
2021/11/25 10:28:35;;;;;;;26.58;22.58;;;6.60;1.00;;;;;;5065090;28;20487;-77
2021/11/25 10:31:11;;;;;;;27.70;22.95;;;6.60;1.00;;;;;;5062861;28;20232;-78
2021/11/25 10:33:47;;;;;;;31.17;20.45;;;6.50;1.00;;;;;;5079160;28;20219;-78
2021/11/25 10:39:26;;;;;;;26.35;21.77;;;6.20;1.00;;;;;;5034728;28;20433;-77
2021/11/25 10:41:55;;;;;;;28.70;22.70;;;6.10;1.00;;;;;;5071876;28;20275;-77
2021/11/25 10:44:25;;;;;;;29.00;21.42;;;6.20;1.00;;;;;;5070557;28;20224;-76
2021/11/25 10:47:01;;;;;;;29.67;23.40;;;6.20;1.00;;;;;;5068587;28;20220;-76
2021/11/25 10:49:41;;;;;;;29.65;22.45;;;6.20;1.00;;;;;;5064739;28;20217;-76
2021/11/25 10:52:15;;;;;;;29.67;22.50;;;6.10;1.00;;;;;;5069406;28;20220;-76
2021/11/25 10:54:47;;;;;;;30.42;24.63;;;6.00;1.00;;;;;;5064889;28;20223;-77
2021/11/25 10:57:16;;;;;;;27.77;22.52;;;6.00;1.00;;;;;;5073271;28;20434;-77
2021/11/25 10:59:45;;;;;;;29.35;22.85;;;6.00;1.00;;;;;;5079498;28;20280;-79
2021/11/25 11:02:30;;;;;;;29.73;22.70;;;6.00;1.00;;;;;;5059025;28;20750;-78
2021/11/25 11:04:59;;;;;;;32.15;25.00;;;6.00;1.00;;;;;;5075664;28;20330;-77
2021/11/25 11:07:30;;;;;;;29.50;23.30;;;6.00;1.00;;;;;;5074520;28;20228;-77
2021/11/25 11:09:59;;;;;;;26.38;21.13;;;6.00;1.00;;;;;;5072578;28;21468;-79
2021/11/25 11:12:34;;;;;;;28.00;22.05;;;6.00;1.00;;;;;;5074542;28;20984;-76
2021/11/25 11:15:26;;;;;;;31.33;22.90;;;6.00;1.00;;;;;;5067753;28;20235;-77
2021/11/25 11:18:42;;;;;;;28.13;21.80;;;6.00;1.00;;;;;;5075532;28;20287;-78
2021/11/25 11:20:50;;;;;;;28.30;21.63;;;6.10;1.00;;;;;;5063652;28;20599;-79
2021/11/25 11:23:20;;;;;;;31.08;22.30;;;6.00;1.00;;;;;;5067835;28;20223;-78
2021/11/25 11:25:52;;;;;;;25.70;20.55;;;6.00;1.00;;;;;;5064002;28;21121;-78
2021/11/25 11:28:22;;;;;;;29.02;22.83;;;6.00;1.00;;;;;;5069690;28;20243;-77
2021/11/25 11:30:49;;;;;;;24.75;20.17;;;5.90;1.00;;;;;;5070927;28;20952;-78
2021/11/25 11:33:19;;;;;;;32.35;23.80;;;5.90;1.00;;;;;;5070668;28;20259;-77
2021/11/25 11:35:47;;;;;;;27.55;21.17;;;5.80;1.00;;;;;;5071716;28;20240;-76
2021/11/25 11:38:16;;;;;;;33.20;24.00;;;5.90;1.00;;;;;;5074704;28;20216;-78
2021/11/25 11:40:44;;;;;;;29.25;23.38;;;6.00;1.00;;;;;;5067452;28;20224;-78
2021/11/25 11:43:15;;;;;;;35.33;26.52;;;6.00;1.00;;;;;;5070240;28;20365;-79
2021/11/25 11:45:43;;;;;;;30.55;23.17;;;5.90;1.00;;;;;;5069788;28;20268;-78
2021/11/25 11:48:13;;;;;;;30.48;23.30;;;5.90;1.00;;;;;;5076501;28;20708;-76
2021/11/25 11:50:43;;;;;;;30.33;23.98;;;6.00;1.00;;;;;;5069211;28;20228;-75
2021/11/25 11:53:17;;;;;;;30.98;24.48;;;5.90;1.00;;;;;;5066195;28;20228;-78
2021/11/25 11:55:47;;;;;;;30.48;23.27;;;5.80;1.00;;;;;;5074081;28;20230;-78
2021/11/25 11:58:24;;;;;;;35.13;25.50;;;5.80;1.00;;;;;;5070294;28;20611;-77
2021/11/25 12:00:52;;;;;;;33.35;26.00;;;5.80;1.00;;;;;;5066996;28;20216;-78
2021/11/25 12:03:34;;;;;;;35.45;25.02;;;5.80;1.00;;;;;;5071093;28;20262;-77
2021/11/25 12:06:07;;;;;;;34.05;25.95;;;5.80;1.00;;;;;;5072940;28;20530;-79
2021/11/25 12:08:55;;;;;;;34.45;24.90;;;5.70;1.00;;;;;;5079031;28;20212;-78
2021/11/25 12:11:22;;;;;;;35.10;26.00;;;5.60;1.00;;;;;;5073468;28;20270;-77
2021/11/25 12:14:16;;;;;;;40.55;25.75;;;5.70;1.00;;;;;;5075573;28;20231;-78
2021/11/25 12:16:51;;;;;;;36.67;26.55;;;5.80;1.00;;;;;;5069489;28;20213;-76
2021/11/25 12:19:28;;;;;;;38.55;28.05;;;5.80;1.00;;;;;;5064261;28;20816;-77
2021/11/25 12:21:57;;;;;;;47.47;29.20;;;5.80;1.00;;;;;;5047955;28;20395;-77
2021/11/25 12:24:31;;;;;;;35.00;26.50;;;5.80;1.00;;;;;;5068974;28;20304;-79
2021/11/25 12:27:09;;;;;;;36.55;25.90;;;5.80;1.00;;;;;;5067309;28;20213;-78
2021/11/25 12:29:40;;;;;;;36.95;28.77;;;5.70;1.00;;;;;;5065670;28;20252;-77
2021/11/25 12:32:36;;;;;;;37.60;26.95;;;5.80;1.00;;;;;;5070841;28;20231;-78
2021/11/25 12:35:20;;;;;;;37.83;28.10;;;5.90;1.00;;;;;;5064853;28;21077;-77
2021/11/25 12:38:01;;;;;;;32.25;25.50;;;5.90;1.00;;;;;;5054852;28;20224;-76
2021/11/25 12:40:58;;;;;;;34.80;27.08;;;5.90;1.00;;;;;;5068945;28;20256;-77
2021/11/25 12:43:27;;;;;;;37.70;26.48;;;5.90;1.00;;;;;;5061811;28;20315;-79
2021/11/25 12:45:57;;;;;;;35.67;26.08;;;6.00;1.00;;;;;;5073551;28;20216;-78
2021/11/25 12:48:27;;;;;;;36.22;25.95;;;6.00;1.00;;;;;;5072354;28;20212;-78
2021/11/25 12:50:58;;;;;;;36.67;27.02;;;5.90;1.00;;;;;;5077731;28;20782;-80
2021/11/25 12:53:29;;;;;;;33.95;25.35;;;5.90;1.00;;;;;;5073883;28;20220;-80
2021/11/25 12:56:00;;;;;;;33.53;27.33;;;5.90;1.00;;;;;;5074189;28;22281;-79
2021/11/25 12:58:43;;;;;;;35.10;27.27;;;5.90;1.00;;;;;;5075384;28;20234;-79
2021/11/25 13:01:15;;;;;;;38.05;26.98;;;5.90;1.00;;;;;;5069717;28;20381;-80
2021/11/25 13:03:43;;;;;;;32.85;23.27;;;5.80;1.00;;;;;;5071937;28;20247;-77
2021/11/25 13:06:13;;;;;;;34.22;26.58;;;5.70;1.00;;;;;;5075146;28;20243;-77
2021/11/25 13:08:42;;;;;;;34.33;26.60;;;5.60;1.00;;;;;;5067100;28;21047;-77
2021/11/25 13:11:16;;;;;;;31.50;25.20;;;5.60;1.00;;;;;;5063708;28;20224;-78
2021/11/25 13:13:45;;;;;;;34.00;25.40;;;5.70;1.00;;;;;;5070563;28;20239;-77
2021/11/25 13:16:18;;;;;;;35.28;27.90;;;5.70;1.00;;;;;;5078310;28;20722;-77
2021/11/25 13:18:58;;;;;;;35.35;26.20;;;5.70;1.00;;;;;;5070883;28;20343;-78
2021/11/25 13:21:31;;;;;;;36.67;25.55;;;5.70;1.00;;;;;;5071786;28;20637;-78